Cowichan Bay, Canada
Current Conditions -  °F | °C
As of 6:29 AM on Wednesday 22 Oct 2014 (Local Time) from CYYJ Reporting Station
Broken Clouds Broken Clouds  
Wind Chill: 52°   Ceiling: 4500
Heat Index: 52°   Visibility: 15mi
Dew Point: 50°   Wind: 13mph
Humidity: 94%   Direction: 130°SE
Pressure: 29.6"   Gusts: NA
Location:  48.73°N, 123.62°W
Report Text: CYYJ 221329Z 13011KT 15SM SCT024 BKN045 BKN140 11/10 A2960 RMK SC4SC2AC1 AC TR SLP025
Loading
Personal Weather Stations






























Interactive Weather Map
Tropical Storm Tracking
New forecast layout! Learn more

10-Day Weather Forecast

Advertisements
Track Severe Weather on mobile